createdAt,value
2022-08-16T00:01:41.023Z,99250.81
2022-08-16T00:04:10.281Z,99249.06
2022-08-16T00:06:40.755Z,99255.31
2022-08-16T00:09:12.955Z,99249.13
2022-08-16T00:11:44.851Z,99251.84
2022-08-16T00:14:18.058Z,99259.88
2022-08-16T00:17:05.735Z,99254.53
2022-08-16T00:19:41.474Z,99255.47
2022-08-16T00:22:13.818Z,99257.31
2022-08-16T00:24:46.673Z,99258.25
2022-08-16T00:27:15.919Z,99261.81
2022-08-16T00:29:46.241Z,99265.41
2022-08-16T00:32:17.927Z,99268.97
2022-08-16T00:34:53.177Z,99269.84
2022-08-16T00:37:57.806Z,99275.22
2022-08-16T00:40:33.347Z,99276.94
2022-08-16T00:43:06.132Z,99279.59
2022-08-16T00:45:58.360Z,99268.97
2022-08-16T00:48:43.844Z,99270.72
2022-08-16T00:51:16.107Z,99280.44
2022-08-16T00:53:48.095Z,99276.81
2022-08-16T00:56:58.359Z,99283.97
2022-08-16T00:59:11.232Z,99268.00
2022-08-16T01:01:44.906Z,99280.44
2022-08-16T01:04:29.534Z,99272.44
2022-08-16T01:07:01.356Z,99272.44
2022-08-16T01:09:34.311Z,99264.47
2022-08-16T01:12:10.676Z,99271.59
2022-08-16T01:14:47.159Z,99276.94
2022-08-16T01:17:18.670Z,99284.03
2022-08-16T01:19:51.217Z,99281.38
2022-08-16T01:22:46.847Z,99267.13
2022-08-16T01:25:23.220Z,99264.47
2022-08-16T01:28:08.160Z,99267.97
2022-08-16T01:30:40.159Z,99267.91
2022-08-16T01:33:22.410Z,99266.13
2022-08-16T01:35:56.430Z,99270.53
2022-08-16T01:38:31.026Z,99269.66
2022-08-16T01:41:05.741Z,99264.31
2022-08-16T01:43:42.650Z,99269.63
2022-08-16T01:46:31.231Z,99264.22
2022-08-16T01:49:15.543Z,99261.53
2022-08-16T01:51:46.814Z,99267.72
2022-08-16T01:54:30.741Z,99265.06
2022-08-16T01:57:02.867Z,99259.72
2022-08-16T01:59:32.918Z,99256.19
2022-08-16T02:02:04.097Z,99257.97
2022-08-16T02:04:54.796Z,99263.28
2022-08-16T02:07:26.572Z,99261.53
2022-08-16T02:09:56.998Z,99268.63
2022-08-16T02:12:39.743Z,99270.38
2022-08-16T02:15:17.690Z,99273.94
2022-08-16T02:17:54.357Z,99271.28
2022-08-16T02:20:26.481Z,99269.50
2022-08-16T02:22:59.666Z,99278.38
2022-08-16T02:25:52.407Z,99277.50
2022-08-16T02:28:24.243Z,99270.41
2022-08-16T02:30:52.917Z,99280.16
2022-08-16T02:33:24.637Z,99277.59
2022-08-16T02:36:48.139Z,99280.31
2022-08-16T02:39:07.845Z,99269.69
2022-08-16T02:41:39.568Z,99262.66
2022-08-16T02:44:13.691Z,99260.06
2022-08-16T02:46:49.816Z,99263.63
2022-08-16T02:49:20.464Z,99258.41
2022-08-16T02:51:50.240Z,99270.88
2022-08-16T02:54:18.710Z,99256.78
2022-08-16T02:56:52.271Z,99266.63
2022-08-16T02:59:23.624Z,99271.97
2022-08-16T03:01:52.038Z,99274.75
2022-08-16T03:04:49.935Z,99271.25
2022-08-16T03:07:17.338Z,99267.78
2022-08-16T03:09:57.110Z,99269.63
2022-08-16T03:12:37.874Z,99267.94
2022-08-16T03:15:24.046Z,99268.91
2022-08-16T03:17:54.267Z,99268.16
2022-08-16T03:20:32.364Z,99266.47
2022-08-16T03:23:05.824Z,99269.16
2022-08-16T03:25:43.320Z,99256.91
2022-08-16T03:28:13.056Z,99270.22
2022-08-16T03:30:43.205Z,99271.16
2022-08-16T03:33:14.061Z,99273.91
2022-08-16T03:35:49.860Z,99278.41
2022-08-16T03:38:34.159Z,99273.19
2022-08-16T03:41:25.557Z,99278.66
2022-08-16T03:44:00.302Z,99281.41
2022-08-16T03:46:48.374Z,99274.41
2022-08-16T03:49:31.166Z,99278.94
2022-08-16T03:52:07.122Z,99287.88
2022-08-16T03:54:36.695Z,99275.53
2022-08-16T03:57:06.270Z,99275.63
2022-08-16T03:59:40.100Z,99277.47
2022-08-16T04:02:22.482Z,99272.31
2022-08-16T04:05:00.649Z,99280.31
2022-08-16T04:07:33.511Z,99288.31
2022-08-16T04:10:35.913Z,99284.81
2022-08-16T04:13:20.459Z,99280.53
2022-08-16T04:15:40.995Z,99287.63
2022-08-16T04:18:20.186Z,99285.94
2022-08-16T04:20:51.291Z,99295.72
2022-08-16T04:23:23.398Z,99294.91
2022-08-16T04:25:54.909Z,99290.50
2022-08-16T04:28:52.018Z,99305.59
2022-08-16T04:31:13.530Z,99304.75
2022-08-16T04:33:50.921Z,99304.78
2022-08-16T04:36:21.025Z,99306.56
2022-08-16T04:38:50.261Z,99309.22
2022-08-16T04:41:32.749Z,99305.72
2022-08-16T04:44:32.509Z,99313.72
2022-08-16T04:47:00.911Z,99319.09
2022-08-16T04:49:43.814Z,99321.75
2022-08-16T04:52:33.200Z,99321.75
2022-08-16T04:55:03.479Z,99328.91
2022-08-16T04:57:32.125Z,99334.22
2022-08-16T05:00:30.904Z,99327.16
2022-08-16T05:02:55.892Z,99337.78
2022-08-16T05:05:32.927Z,99336.03
2022-08-16T05:08:29.937Z,99334.28
2022-08-16T05:11:01.446Z,99331.63
2022-08-16T05:13:40.977Z,99330.72
2022-08-16T05:16:20.299Z,99341.34
2022-08-16T05:18:56.612Z,99335.16
2022-08-16T05:21:38.039Z,99337.78
2022-08-16T05:24:09.238Z,99344.00
2022-08-16T05:26:40.794Z,99344.84
2022-08-16T05:29:15.174Z,99337.72
2022-08-16T05:31:53.306Z,99349.19
2022-08-16T05:34:22.707Z,99339.44
2022-08-16T05:36:57.443Z,99351.84
2022-08-16T05:39:33.321Z,99351.84
2022-08-16T05:42:06.627Z,99350.03
2022-08-16T05:44:37.398Z,99358.84
2022-08-16T05:47:06.235Z,99355.25
2022-08-16T05:49:39.595Z,99346.34
2022-08-16T05:52:13.774Z,99341.84
2022-08-16T05:54:47.789Z,99342.69
2022-08-16T05:57:27.039Z,99342.63
2022-08-16T06:00:09.179Z,99340.81
2022-08-16T06:02:41.289Z,99346.97
2022-08-16T06:05:41.382Z,99347.75
2022-08-16T06:08:31.730Z,99348.59
2022-08-16T06:11:09.696Z,99349.44
2022-08-16T06:13:42.820Z,99343.16
2022-08-16T06:16:17.813Z,99340.44
2022-08-16T06:18:48.144Z,99353.63
2022-08-16T06:21:22.773Z,99361.50
2022-08-16T06:24:01.065Z,99370.31
2022-08-16T06:26:34.726Z,99374.69
2022-08-16T06:29:07.774Z,99371.00
2022-08-16T06:31:46.583Z,99381.53
2022-08-16T06:34:56.228Z,99375.22
2022-08-16T06:37:07.529Z,99376.88
2022-08-16T06:39:49.718Z,99378.56
2022-08-16T06:42:48.076Z,99369.59
2022-08-16T06:45:31.168Z,99374.78
2022-08-16T06:48:12.569Z,99365.84
2022-08-16T06:50:49.754Z,99367.50
2022-08-16T06:53:19.718Z,99368.34
2022-08-16T06:56:14.590Z,99374.41
2022-08-16T06:59:12.398Z,99367.25
2022-08-16T07:01:53.707Z,99373.34
2022-08-16T07:04:32.909Z,99371.50
2022-08-16T07:07:15.214Z,99378.44
2022-08-16T07:09:44.561Z,99384.56
2022-08-16T07:12:15.248Z,99394.19
2022-08-16T07:14:47.793Z,99395.00
2022-08-16T07:17:19.331Z,99404.56
2022-08-16T07:20:30.275Z,99405.34
2022-08-16T07:22:52.548Z,99406.13
2022-08-16T07:25:32.788Z,99402.47
2022-08-16T07:28:04.823Z,99405.03
2022-08-16T07:30:46.396Z,99397.75
2022-08-16T07:33:52.071Z,99402.06
2022-08-16T07:36:30.809Z,99402.72
2022-08-16T07:38:59.848Z,99393.69
2022-08-16T07:41:34.337Z,99407.75
2022-08-16T07:44:16.642Z,99405.84
2022-08-16T07:46:47.288Z,99408.31
2022-08-16T07:49:25.030Z,99412.63
2022-08-16T07:51:56.293Z,99416.03
2022-08-16T07:54:37.902Z,99414.09
2022-08-16T07:57:14.402Z,99419.22
2022-08-16T07:59:48.784Z,99408.38
2022-08-16T08:02:20.386Z,99421.59
2022-08-16T08:04:52.196Z,99422.34
2022-08-16T08:07:21.042Z,99431.09
2022-08-16T08:09:54.283Z,99437.09
2022-08-16T08:12:31.531Z,99427.09
2022-08-16T08:15:10.809Z,99432.25
2022-08-16T08:17:44.003Z,99431.13
2022-08-16T08:20:30.375Z,99434.44
2022-08-16T08:23:03.200Z,99433.38
2022-08-16T08:25:54.756Z,99435.84
2022-08-16T08:28:26.310Z,99427.63
2022-08-16T08:31:03.040Z,99424.78
2022-08-16T08:33:35.795Z,99428.16
2022-08-16T08:36:10.179Z,99439.50
2022-08-16T08:38:45.651Z,99443.78
2022-08-16T08:41:18.642Z,99444.47
2022-08-16T08:43:53.970Z,99452.19
2022-08-16T08:46:25.685Z,99454.59
2022-08-16T08:49:02.096Z,99453.44
2022-08-16T08:51:38.287Z,99456.84
2022-08-16T08:54:20.731Z,99452.19
2022-08-16T08:56:55.184Z,99455.56
2022-08-16T08:59:34.832Z,99458.94
2022-08-16T09:02:29.828Z,99454.25
2022-08-16T09:04:59.479Z,99454.91
2022-08-16T09:07:27.911Z,99455.53
2022-08-16T09:10:00.740Z,99458.06
2022-08-16T09:12:48.259Z,99460.44
2022-08-16T09:15:32.899Z,99463.81
2022-08-16T09:18:26.312Z,99459.13
2022-08-16T09:20:59.068Z,99463.22
2022-08-16T09:23:31.066Z,99463.88
2022-08-16T09:26:45.763Z,99455.53
2022-08-16T09:29:15.608Z,99459.78
2022-08-16T09:31:47.256Z,99461.28
2022-08-16T09:34:23.416Z,99464.63
2022-08-16T09:36:53.949Z,99456.47
2022-08-16T09:39:23.179Z,99454.50
2022-08-16T09:41:53.240Z,99458.69
2022-08-16T09:45:10.597Z,99453.09
2022-08-16T09:47:12.347Z,99450.97
2022-08-16T09:49:42.208Z,99464.16
2022-08-16T09:52:12.014Z,99455.88
2022-08-16T09:54:44.472Z,99456.44
2022-08-16T09:57:13.752Z,99456.94
2022-08-16T09:59:42.337Z,99458.47
2022-08-16T10:02:27.215Z,99452.91
2022-08-16T10:04:59.137Z,99455.41
2022-08-16T10:07:44.102Z,99452.41
2022-08-16T10:10:19.093Z,99448.53
2022-08-16T10:13:16.430Z,99458.81
2022-08-16T10:15:47.044Z,99455.75
2022-08-16T10:18:56.831Z,99457.13
2022-08-16T10:21:15.853Z,99452.22
2022-08-16T10:23:44.719Z,99452.81
2022-08-16T10:27:18.289Z,99451.50
2022-08-16T10:29:04.876Z,99443.09
2022-08-16T10:31:45.571Z,99454.31
2022-08-16T10:34:31.476Z,99452.16
2022-08-16T10:37:03.006Z,99452.66
2022-08-16T10:39:40.487Z,99451.34
2022-08-16T10:42:13.107Z,99450.19
2022-08-16T10:44:42.696Z,99440.13
2022-08-16T10:47:22.147Z,99457.66
2022-08-16T10:49:50.592Z,99451.81
2022-08-16T10:52:20.480Z,99455.06
2022-08-16T10:54:59.979Z,99458.28
2022-08-16T10:57:41.807Z,99453.50
2022-08-16T11:00:21.232Z,99456.75
2022-08-16T11:02:59.226Z,99449.16
2022-08-16T11:05:59.021Z,99457.91
2022-08-16T11:08:31.196Z,99452.78
2022-08-16T11:11:10.599Z,99454.94
2022-08-16T11:14:06.067Z,99460.78
2022-08-16T11:19:22.806Z,99461.66
2022-08-16T11:24:43.421Z,99456.59
2022-08-16T11:27:19.546Z,99457.00
2022-08-16T11:29:52.157Z,99451.97
2022-08-16T11:32:29.703Z,99439.66
2022-08-16T11:35:16.073Z,99451.53
2022-08-16T11:40:44.485Z,99458.16
2022-08-16T11:43:16.710Z,99455.75
2022-08-16T11:45:54.101Z,99458.06
2022-08-16T11:48:24.574Z,99457.47
2022-08-16T11:50:58.131Z,99460.44
2022-08-16T11:53:28.211Z,99458.75
2022-08-16T11:56:06.561Z,99454.28
2022-08-16T11:58:35.162Z,99466.44
2022-08-16T12:01:04.344Z,99468.69
2022-08-16T12:03:35.386Z,99459.97
2022-08-16T12:06:10.653Z,99456.81
2022-08-16T12:08:42.576Z,99461.84
2022-08-16T12:11:14.463Z,99461.84
2022-08-16T12:13:44.172Z,99464.47
2022-08-16T12:16:20.540Z,99466.13
2022-08-16T12:21:22.956Z,99461.59
2022-08-16T12:23:51.334Z,99458.53
2022-08-16T12:26:21.125Z,99443.41
2022-08-16T12:28:54.583Z,99453.47
2022-08-16T12:31:25.671Z,99452.69
2022-08-16T12:33:57.427Z,99449.09
2022-08-16T12:36:29.739Z,99449.19
2022-08-16T12:39:00.660Z,99455.06
2022-08-16T12:41:34.761Z,99452.06
2022-08-16T12:44:05.356Z,99456.44
2022-08-16T12:46:37.277Z,99466.72
2022-08-16T12:49:06.364Z,99461.16
2022-08-16T12:51:59.788Z,99463.75
2022-08-16T12:54:25.734Z,99468.91
2022-08-16T12:56:56.127Z,99472.94
2022-08-16T12:59:31.077Z,99467.13
2022-08-16T13:02:00.738Z,99462.06
2022-08-16T13:04:33.896Z,99461.25
2022-08-16T13:07:08.272Z,99465.00
2022-08-16T13:09:47.763Z,99465.75
2022-08-16T13:12:23.317Z,99464.81
2022-08-16T13:14:55.900Z,99462.72
2022-08-16T13:17:29.746Z,99465.13
2022-08-16T13:20:08.683Z,99454.41
2022-08-16T13:25:21.014Z,99454.19
2022-08-16T13:28:02.533Z,99464.78
2022-08-16T13:30:44.010Z,99458.72
2022-08-16T13:33:29.045Z,99452.59
2022-08-16T13:36:00.379Z,99448.91
2022-08-16T13:38:37.005Z,99444.06
2022-08-16T13:41:08.229Z,99445.38
2022-08-16T13:43:40.094Z,99444.19
2022-08-16T13:46:09.455Z,99450.97
2022-08-16T13:48:44.249Z,99448.56
2022-08-16T13:51:18.857Z,99449.25
2022-08-16T13:53:59.863Z,99454.88
2022-08-16T13:56:37.482Z,99454.88
2022-08-16T13:59:19.668Z,99456.59
2022-08-16T14:01:56.003Z,99451.41
2022-08-16T14:04:27.230Z,99439.78
2022-08-16T14:06:57.419Z,99444.16
2022-08-16T14:09:27.219Z,99446.38
2022-08-16T14:11:56.334Z,99433.84
2022-08-16T14:14:29.085Z,99444.91
2022-08-16T14:16:58.840Z,99447.75
2022-08-16T14:19:27.951Z,99449.00
2022-08-16T14:22:15.297Z,99454.09
2022-08-16T14:24:49.577Z,99451.16
2022-08-16T14:27:18.647Z,99454.66
2022-08-16T14:29:50.826Z,99449.25
2022-08-16T14:32:33.539Z,99454.44
2022-08-16T14:35:07.569Z,99449.25
2022-08-16T14:37:36.209Z,99450.34
2022-08-16T14:40:06.638Z,99440.34
2022-08-16T14:42:36.721Z,99441.66
2022-08-16T14:45:08.832Z,99447.53
2022-08-16T14:47:38.443Z,99458.34
2022-08-16T14:50:09.458Z,99449.03
2022-08-16T14:53:04.365Z,99455.09
2022-08-16T14:55:33.594Z,99444.03
2022-08-16T14:58:05.646Z,99447.38
2022-08-16T15:00:36.710Z,99453.31
2022-08-16T15:03:10.514Z,99446.97
2022-08-16T15:05:40.237Z,99451.50
2022-08-16T15:08:09.877Z,99449.09
2022-08-16T15:10:42.859Z,99452.59
2022-08-16T15:13:15.382Z,99450.44
2022-08-16T15:15:56.271Z,99448.75
2022-08-16T15:18:31.807Z,99444.00
2022-08-16T15:21:02.063Z,99437.72
2022-08-16T15:23:33.545Z,99442.31
2022-08-16T15:26:04.517Z,99442.44
2022-08-16T15:28:38.027Z,99436.47
2022-08-16T15:31:13.202Z,99437.97
2022-08-16T15:33:49.974Z,99438.97
2022-08-16T15:36:21.311Z,99440.16
2022-08-16T15:38:58.191Z,99439.72
2022-08-16T15:42:06.618Z,99442.13
2022-08-16T15:44:51.437Z,99443.41
2022-08-16T15:47:26.385Z,99446.38
2022-08-16T15:49:56.111Z,99447.47
2022-08-16T15:52:29.958Z,99447.69
2022-08-16T15:55:01.116Z,99449.75
2022-08-16T15:57:41.906Z,99443.81
2022-08-16T16:00:14.699Z,99445.97
2022-08-16T16:02:46.721Z,99449.06
2022-08-16T16:05:19.046Z,99445.81
2022-08-16T16:07:56.381Z,99445.50
2022-08-16T16:10:29.505Z,99445.16
2022-08-16T16:13:00.219Z,99451.81
2022-08-16T16:15:30.877Z,99443.03
2022-08-16T16:18:09.568Z,99448.66
2022-08-16T16:20:42.248Z,99448.09
2022-08-16T16:23:11.304Z,99449.16
2022-08-16T16:25:43.875Z,99442.13
2022-08-16T16:29:05.926Z,99444.91
2022-08-16T16:31:04.854Z,99450.31
2022-08-16T16:33:39.881Z,99457.91
2022-08-16T16:36:11.116Z,99450.16
2022-08-16T16:38:42.696Z,99452.19
2022-08-16T16:41:12.057Z,99451.66
2022-08-16T16:43:44.115Z,99440.41
2022-08-16T16:46:40.438Z,99444.53
2022-08-16T16:49:08.694Z,99437.94
2022-08-16T16:51:44.488Z,99444.97
2022-08-16T16:54:13.735Z,99451.38
2022-08-16T16:56:57.138Z,99444.44
2022-08-16T16:59:25.543Z,99450.47
2022-08-16T17:02:40.995Z,99454.81
2022-08-16T17:04:49.331Z,99445.97
2022-08-16T17:07:20.703Z,99452.88
2022-08-16T17:09:52.985Z,99441.81
2022-08-16T17:12:25.055Z,99449.00
2022-08-16T17:15:11.191Z,99445.53
2022-08-16T17:18:00.238Z,99436.63
2022-08-16T17:20:29.770Z,99441.94
2022-08-16T17:22:58.896Z,99457.94
2022-08-16T17:28:57.631Z,99449.97
2022-08-16T17:31:05.339Z,99446.25
2022-08-16T17:33:37.334Z,99449.66
2022-08-16T17:36:36.506Z,99446.03
2022-08-16T17:39:07.553Z,99441.22
2022-08-16T17:39:26.769Z,99450.34
2022-08-16T17:41:38.279Z,99437.22
2022-08-16T17:44:08.622Z,99440.56
2022-08-16T17:46:51.603Z,99442.06
2022-08-16T17:49:21.029Z,99447.19
2022-08-16T17:51:50.990Z,99448.63
2022-08-16T17:54:37.798Z,99447.47
2022-08-16T17:57:06.596Z,99456.16
2022-08-16T17:59:38.410Z,99461.13
2022-08-16T18:02:42.060Z,99460.75
2022-08-16T18:04:58.502Z,99455.16
2022-08-16T18:07:28.361Z,99443.00
2022-08-16T18:09:56.698Z,99449.81
2022-08-16T18:12:51.103Z,99454.91
2022-08-16T18:15:17.029Z,99466.41
2022-08-16T18:17:45.739Z,99466.97
2022-08-16T18:20:35.230Z,99466.53
2022-08-16T18:23:07.065Z,99462.50
2022-08-16T18:25:36.138Z,99459.34
2022-08-16T18:28:05.214Z,99459.72
2022-08-16T18:30:33.606Z,99463.72
2022-08-16T18:33:02.003Z,99460.63
2022-08-16T18:35:30.464Z,99462.88
2022-08-16T18:37:58.819Z,99466.81
2022-08-16T18:40:28.656Z,99468.22
2022-08-16T18:43:02.105Z,99464.22
2022-08-16T18:45:35.729Z,99475.53
2022-08-16T18:48:06.337Z,99476.81
2022-08-16T18:51:03.436Z,99480.78
2022-08-16T18:53:29.469Z,99482.06
2022-08-16T18:56:01.518Z,99478.94
2022-08-16T18:58:32.918Z,99477.50
2022-08-16T19:01:01.359Z,99485.91
2022-08-16T19:03:32.088Z,99488.06
2022-08-16T19:06:06.453Z,99482.13
2022-08-16T19:08:39.883Z,99483.41
2022-08-16T19:11:13.731Z,99488.16
2022-08-16T19:13:44.116Z,99492.91
2022-08-16T19:16:14.470Z,99495.91
2022-08-16T19:18:43.379Z,99492.59
2022-08-16T19:21:14.667Z,99495.53
2022-08-16T19:23:44.495Z,99502.06
2022-08-16T19:26:24.446Z,99502.34
2022-08-16T19:28:58.524Z,99509.94
2022-08-16T19:31:30.955Z,99513.03
2022-08-16T19:34:00.691Z,99508.91
2022-08-16T19:36:35.171Z,99516.38
2022-08-16T19:39:08.972Z,99518.44
2022-08-16T19:41:45.618Z,99526.88
2022-08-16T19:44:14.448Z,99529.75
2022-08-16T19:46:44.861Z,99524.72
2022-08-16T19:49:16.360Z,99524.03
2022-08-16T19:51:45.278Z,99527.00
2022-08-16T19:54:13.674Z,99523.66
2022-08-16T19:56:43.458Z,99538.19
2022-08-16T19:59:20.882Z,99536.63
2022-08-16T20:01:51.862Z,99537.81
2022-08-16T20:04:21.549Z,99544.41
2022-08-16T20:06:50.306Z,99545.56
2022-08-16T20:09:21.037Z,99544.03
2022-08-16T20:11:52.375Z,99548.75
2022-08-16T20:14:25.484Z,99549.88
2022-08-16T20:16:59.461Z,99560.03
2022-08-16T20:19:32.540Z,99562.94
2022-08-16T20:22:09.077Z,99565.03
2022-08-16T20:24:37.582Z,99566.16
2022-08-16T20:27:09.515Z,99565.50
2022-08-16T20:29:39.864Z,99562.22
2022-08-16T20:32:12.343Z,99562.47
2022-08-16T20:34:41.913Z,99568.03
2022-08-16T20:37:12.507Z,99565.59
2022-08-16T20:39:44.120Z,99567.50
2022-08-16T20:42:15.662Z,99562.41
2022-08-16T20:44:44.978Z,99560.78
2022-08-16T20:47:13.484Z,99575.25
2022-08-16T20:49:41.999Z,99568.28
2022-08-16T20:52:12.699Z,99574.66
2022-08-16T20:54:41.689Z,99570.31
2022-08-16T20:57:10.243Z,99576.63
2022-08-16T20:59:40.625Z,99571.31
2022-08-16T21:02:10.988Z,99575.81
2022-08-16T21:04:39.447Z,99569.59
2022-08-16T21:07:08.423Z,99567.81
2022-08-16T21:09:38.294Z,99579.50
2022-08-16T21:12:11.462Z,99570.63
2022-08-16T21:14:43.805Z,99568.16
2022-08-16T21:17:15.913Z,99577.19
2022-08-16T21:19:46.087Z,99577.31
2022-08-16T21:22:17.152Z,99571.13
2022-08-16T21:24:46.378Z,99574.75
2022-08-16T21:27:18.692Z,99574.75
2022-08-16T21:29:51.757Z,99581.97
2022-08-16T21:32:34.871Z,99578.50
2022-08-16T21:35:09.429Z,99576.75
2022-08-16T21:37:37.856Z,99576.00
2022-08-16T21:40:08.361Z,99567.91
2022-08-16T21:42:38.031Z,99566.16
2022-08-16T21:45:09.352Z,99559.06
2022-08-16T21:47:38.107Z,99561.69
2022-08-16T21:50:07.649Z,99559.06
2022-08-16T21:52:36.066Z,99556.38
2022-08-16T21:55:05.531Z,99563.47
2022-08-16T21:57:35.597Z,99560.78
2022-08-16T22:00:12.219Z,99562.56
2022-08-16T22:02:41.332Z,99563.47
2022-08-16T22:05:10.069Z,99560.78
2022-08-16T22:07:38.536Z,99560.00
2022-08-16T22:11:04.782Z,99562.75
2022-08-16T22:12:56.588Z,99568.13
2022-08-16T22:15:27.093Z,99558.44
2022-08-16T22:17:57.338Z,99567.41
2022-08-16T22:20:27.416Z,99573.63
2022-08-16T22:23:05.985Z,99561.19
2022-08-16T22:25:34.378Z,99569.22
2022-08-16T22:28:02.858Z,99575.50
2022-08-16T22:30:32.627Z,99573.75
2022-08-16T22:33:01.730Z,99574.66
2022-08-16T22:35:30.070Z,99576.56
2022-08-16T22:38:50.663Z,99574.75
2022-08-16T22:40:48.090Z,99572.13
2022-08-16T22:43:18.822Z,99573.00
2022-08-16T22:45:48.847Z,99563.22
2022-08-16T22:48:18.081Z,99560.59
2022-08-16T22:50:47.119Z,99568.63
2022-08-16T22:53:16.219Z,99566.91
2022-08-16T22:55:45.137Z,99566.03
2022-08-16T22:58:15.511Z,99575.88
2022-08-16T23:00:45.081Z,99567.91
2022-08-16T23:03:17.634Z,99567.03
2022-08-16T23:05:50.528Z,99567.94
2022-08-16T23:08:38.792Z,99568.88
2022-08-16T23:11:10.497Z,99568.94
2022-08-16T23:13:49.682Z,99564.56
2022-08-16T23:16:28.759Z,99568.31
2022-08-16T23:19:04.058Z,99557.72
2022-08-16T23:21:32.976Z,99552.50
2022-08-16T23:24:01.378Z,99554.34
2022-08-16T23:26:44.811Z,99553.53
2022-08-16T23:29:23.347Z,99554.53
2022-08-16T23:31:56.723Z,99549.25
2022-08-16T23:34:29.036Z,99548.41
2022-08-16T23:36:57.711Z,99542.31
2022-08-16T23:39:26.313Z,99533.38
2022-08-16T23:41:55.659Z,99528.16
2022-08-16T23:44:58.738Z,99538.03
2022-08-16T23:47:12.769Z,99534.56
2022-08-16T23:49:59.885Z,99529.31
2022-08-16T23:52:42.105Z,99538.28
2022-08-16T23:55:20.012Z,99533.00
2022-08-16T23:57:48.359Z,99536.66
